createdAt,value
2017-11-28T00:00:47.790Z,95.80
2017-11-28T00:03:14.037Z,95.90
2017-11-28T00:05:41.226Z,95.90
2017-11-28T00:08:07.476Z,95.90
2017-11-28T00:10:33.745Z,96.00
2017-11-28T00:13:00.711Z,95.90
2017-11-28T00:15:26.951Z,95.90
2017-11-28T00:17:53.243Z,95.80
2017-11-28T00:20:19.627Z,95.70
2017-11-28T00:22:45.877Z,95.60
2017-11-28T00:25:12.267Z,95.50
2017-11-28T00:27:38.494Z,95.50
2017-11-28T00:30:04.730Z,95.90
2017-11-28T00:32:31.063Z,95.60
2017-11-28T00:34:57.398Z,95.50
2017-11-28T00:37:23.751Z,95.50
2017-11-28T00:39:49.974Z,95.40
2017-11-28T00:42:16.376Z,95.30
2017-11-28T00:44:42.702Z,95.30
2017-11-28T00:47:09.091Z,95.30
2017-11-28T00:49:35.388Z,95.20
2017-11-28T00:52:01.756Z,95.30
2017-11-28T00:54:28.103Z,95.20
2017-11-28T00:56:55.123Z,95.00
2017-11-28T00:59:21.426Z,94.90
2017-11-28T01:01:47.712Z,94.90
2017-11-28T01:04:14.703Z,94.80
2017-11-28T01:06:40.950Z,94.80
2017-11-28T01:09:07.215Z,94.90
2017-11-28T01:11:34.217Z,94.90
2017-11-28T01:14:00.495Z,94.90
2017-11-28T01:16:26.793Z,94.70
2017-11-28T01:18:53.047Z,94.60
2017-11-28T01:21:20.067Z,94.40
2017-11-28T01:23:46.291Z,94.40
2017-11-28T01:26:12.670Z,94.70
2017-11-28T01:28:38.926Z,94.20
2017-11-28T01:31:05.195Z,94.30
2017-11-28T01:33:32.226Z,93.90
2017-11-28T01:35:58.603Z,93.90
2017-11-28T01:38:24.976Z,94.10
2017-11-28T01:40:51.215Z,94.00
2017-11-28T01:43:17.447Z,94.30
2017-11-28T01:45:43.718Z,94.10
2017-11-28T01:48:09.975Z,94.00
2017-11-28T01:50:36.292Z,93.90
2017-11-28T01:53:02.590Z,94.00
2017-11-28T01:55:28.911Z,94.00
2017-11-28T01:57:55.987Z,93.90
2017-11-28T02:00:22.275Z,93.90
2017-11-28T02:02:48.607Z,94.00
2017-11-28T02:05:15.581Z,94.20
2017-11-28T02:07:41.968Z,93.80
2017-11-28T02:10:08.259Z,93.70
2017-11-28T02:12:34.516Z,93.70
2017-11-28T02:15:00.893Z,93.80
2017-11-28T02:17:27.237Z,93.90
2017-11-28T02:19:53.517Z,94.00
2017-11-28T02:22:19.819Z,93.90
2017-11-28T02:24:46.074Z,94.00
2017-11-28T02:27:12.342Z,93.90
2017-11-28T02:29:38.583Z,93.80
2017-11-28T02:32:04.823Z,93.80
2017-11-28T02:34:31.083Z,93.60
2017-11-28T02:36:57.331Z,93.70
2017-11-28T02:39:24.333Z,93.80
2017-11-28T02:41:50.620Z,93.70
2017-11-28T02:44:17.607Z,93.40
2017-11-28T02:46:43.939Z,93.40
2017-11-28T02:49:17.080Z,93.50
2017-11-28T02:51:46.054Z,93.40
2017-11-28T02:54:24.761Z,93.40
2017-11-28T02:57:03.516Z,93.50
2017-11-28T02:59:43.073Z,93.40
2017-11-28T03:02:09.362Z,93.40
2017-11-28T03:04:35.635Z,93.40
2017-11-28T03:07:03.783Z,93.40
2017-11-28T03:09:34.820Z,93.30
2017-11-28T03:12:01.829Z,93.10
2017-11-28T03:14:29.860Z,93.00
2017-11-28T03:16:56.139Z,93.20
2017-11-28T03:19:25.177Z,93.10
2017-11-28T03:21:53.905Z,93.10
2017-11-28T03:24:32.935Z,93.00
2017-11-28T03:26:59.189Z,93.10
2017-11-28T03:29:33.428Z,93.10
2017-11-28T03:31:59.709Z,93.00
2017-11-28T03:34:25.958Z,93.10
2017-11-28T03:36:52.225Z,93.20
2017-11-28T03:39:18.470Z,93.20
2017-11-28T03:41:44.740Z,93.40
2017-11-28T03:44:28.099Z,93.60
2017-11-28T03:46:55.146Z,93.30
2017-11-28T03:49:22.213Z,93.20
2017-11-28T03:51:48.483Z,93.20
2017-11-28T03:54:14.738Z,93.40
2017-11-28T03:56:41.014Z,93.30
2017-11-28T03:59:07.270Z,93.30
2017-11-28T04:01:33.534Z,93.20
2017-11-28T04:04:01.178Z,93.20
2017-11-28T04:06:28.226Z,93.40
2017-11-28T04:08:55.430Z,93.60
2017-11-28T04:11:21.741Z,93.70
2017-11-28T04:13:47.984Z,93.30
2017-11-28T04:16:14.217Z,93.30
2017-11-28T04:18:40.497Z,93.30
2017-11-28T04:21:07.520Z,93.30
2017-11-28T04:23:33.780Z,93.30
2017-11-28T04:26:00.890Z,93.20
2017-11-28T04:28:27.184Z,93.20
2017-11-28T04:30:53.484Z,93.20
2017-11-28T04:33:20.496Z,93.60
2017-11-28T04:35:46.873Z,93.60
2017-11-28T04:38:13.239Z,93.70
2017-11-28T04:40:40.987Z,95.20
2017-11-28T04:43:07.343Z,95.20
2017-11-28T04:45:33.587Z,94.30
2017-11-28T04:48:00.056Z,94.30
2017-11-28T04:50:27.080Z,94.50
2017-11-28T04:52:53.395Z,94.50
2017-11-28T04:55:19.649Z,94.90
2017-11-28T04:57:46.647Z,95.20
2017-11-28T05:00:12.972Z,95.10
2017-11-28T05:02:39.272Z,95.40
2017-11-28T05:05:05.569Z,95.50
2017-11-28T05:07:31.997Z,95.60
2017-11-28T05:09:58.265Z,95.70
2017-11-28T05:12:24.605Z,95.80
2017-11-28T05:14:50.868Z,95.70
2017-11-28T05:17:17.130Z,95.80
2017-11-28T05:19:44.140Z,95.70
2017-11-28T05:22:10.376Z,95.70
2017-11-28T05:24:36.635Z,95.60
2017-11-28T05:27:03.639Z,95.70
2017-11-28T05:29:29.939Z,95.70
2017-11-28T05:31:56.175Z,95.70
2017-11-28T05:34:22.417Z,95.60
2017-11-28T05:36:48.733Z,95.40
2017-11-28T05:39:15.019Z,95.40
2017-11-28T05:41:42.207Z,95.20
2017-11-28T05:44:08.437Z,95.20
2017-11-28T05:46:34.683Z,95.00
2017-11-28T05:49:00.927Z,95.00
2017-11-28T05:51:27.203Z,95.00
2017-11-28T05:53:54.209Z,94.70
2017-11-28T05:56:21.101Z,94.70
2017-11-28T05:58:47.357Z,94.70
2017-11-28T06:01:13.683Z,94.70
2017-11-28T06:03:40.019Z,94.60
2017-11-28T06:06:06.333Z,94.60
2017-11-28T06:08:32.627Z,94.70
2017-11-28T06:10:59.699Z,94.50
2017-11-28T06:13:28.724Z,94.60
2017-11-28T06:15:55.082Z,94.60
2017-11-28T06:18:21.403Z,94.60
2017-11-28T06:20:47.682Z,94.40
2017-11-28T06:23:13.937Z,94.50
2017-11-28T06:25:40.204Z,94.60
2017-11-28T06:28:06.498Z,94.60
2017-11-28T06:30:32.770Z,94.60
2017-11-28T06:32:59.817Z,94.60
2017-11-28T06:35:26.081Z,94.60
2017-11-28T06:37:52.379Z,94.50
2017-11-28T06:40:18.877Z,94.50
2017-11-28T06:42:45.195Z,94.60
2017-11-28T06:45:11.485Z,94.50
2017-11-28T06:47:37.757Z,94.40
2017-11-28T06:50:04.141Z,94.40
2017-11-28T06:52:31.141Z,94.20
2017-11-28T06:54:57.395Z,94.20
2017-11-28T06:57:24.392Z,94.00
2017-11-28T06:59:51.532Z,94.00
2017-11-28T07:02:17.770Z,94.10
2017-11-28T07:04:44.107Z,93.90
2017-11-28T07:07:11.344Z,93.80
2017-11-28T07:09:37.715Z,93.50
2017-11-28T07:12:04.444Z,93.60
2017-11-28T07:14:30.703Z,93.50
2017-11-28T07:16:56.962Z,93.60
2017-11-28T07:19:23.233Z,93.70
2017-11-28T07:21:49.482Z,93.60
2017-11-28T07:24:15.767Z,93.70
2017-11-28T07:26:42.017Z,93.80
2017-11-28T07:29:08.294Z,93.80
2017-11-28T07:31:34.564Z,93.80
2017-11-28T07:34:00.834Z,93.80
2017-11-28T07:36:27.380Z,93.90
2017-11-28T07:38:53.900Z,93.90
2017-11-28T07:41:20.984Z,93.80
2017-11-28T07:43:47.362Z,93.80
2017-11-28T07:46:13.695Z,93.90
2017-11-28T07:48:39.985Z,93.90
2017-11-28T07:51:06.374Z,94.10
2017-11-28T07:53:32.651Z,94.00
2017-11-28T07:55:58.978Z,94.10
2017-11-28T07:58:25.456Z,93.90
2017-11-28T08:00:51.859Z,93.80
2017-11-28T08:03:18.115Z,93.90
2017-11-28T08:05:45.140Z,93.70
2017-11-28T08:08:11.487Z,93.70
2017-11-28T08:10:37.825Z,93.70
2017-11-28T08:13:04.849Z,93.50
2017-11-28T08:15:31.298Z,93.50
2017-11-28T08:17:57.654Z,93.30
2017-11-28T08:20:24.022Z,93.30
2017-11-28T08:22:50.528Z,93.20
2017-11-28T08:25:17.666Z,93.00
2017-11-28T08:27:44.032Z,93.00
2017-11-28T08:30:10.321Z,93.20
2017-11-28T08:32:37.427Z,92.30
2017-11-28T08:35:03.758Z,92.30
2017-11-28T08:37:30.130Z,92.10
2017-11-28T08:39:56.428Z,92.20
2017-11-28T08:42:22.818Z,92.20
2017-11-28T08:44:49.620Z,92.20
2017-11-28T08:47:15.944Z,92.00
2017-11-28T08:49:42.294Z,92.00
2017-11-28T08:52:08.687Z,91.90
2017-11-28T08:54:35.013Z,91.80
2017-11-28T08:57:01.323Z,91.80
2017-11-28T08:59:28.104Z,91.90
2017-11-28T09:01:54.460Z,91.90
2017-11-28T09:04:21.596Z,91.80
2017-11-28T09:06:48.002Z,91.70
2017-11-28T09:09:14.312Z,91.70
2017-11-28T09:11:40.601Z,91.70
2017-11-28T09:14:07.648Z,91.70
2017-11-28T09:16:34.729Z,91.80
2017-11-28T09:19:01.312Z,91.80
2017-11-28T09:21:29.043Z,91.80
2017-11-28T09:23:55.347Z,91.60
2017-11-28T09:26:21.699Z,91.50
2017-11-28T09:28:47.961Z,91.50
2017-11-28T09:31:15.080Z,91.80
2017-11-28T09:33:41.395Z,91.50
2017-11-28T09:36:07.759Z,91.70
2017-11-28T09:38:34.816Z,91.60
2017-11-28T09:41:01.061Z,91.60
2017-11-28T09:43:27.399Z,91.70
2017-11-28T09:45:54.513Z,91.50
2017-11-28T09:48:20.777Z,91.50
2017-11-28T09:50:47.819Z,91.60
2017-11-28T09:53:14.079Z,91.60
2017-11-28T09:55:40.353Z,91.70
2017-11-28T09:58:06.745Z,91.60
2017-11-28T10:00:33.114Z,91.80
2017-11-28T10:03:00.157Z,91.60
2017-11-28T10:05:26.464Z,91.60
2017-11-28T10:07:52.859Z,91.60
2017-11-28T10:10:19.212Z,91.50
2017-11-28T10:12:45.488Z,91.20
2017-11-28T10:15:12.632Z,91.00
2017-11-28T10:17:38.958Z,91.00
2017-11-28T10:20:05.258Z,90.60
2017-11-28T10:22:31.612Z,90.60
2017-11-28T10:24:57.938Z,90.60
2017-11-28T10:27:24.257Z,90.60
2017-11-28T10:29:50.674Z,90.70
2017-11-28T10:32:16.993Z,90.40
2017-11-28T10:34:43.301Z,90.40
2017-11-28T10:37:10.318Z,90.20
2017-11-28T10:39:36.674Z,90.20
2017-11-28T10:42:03.763Z,90.20
2017-11-28T10:44:30.066Z,90.20
2017-11-28T10:46:56.412Z,90.40
2017-11-28T10:49:22.715Z,90.00
2017-11-28T10:51:49.706Z,90.30
2017-11-28T10:54:15.993Z,90.30
2017-11-28T10:56:42.245Z,89.60
2017-11-28T10:59:08.467Z,89.70
2017-11-28T11:01:34.764Z,89.20
2017-11-28T11:04:01.770Z,88.80
2017-11-28T11:06:28.080Z,88.70
2017-11-28T11:08:54.328Z,87.90
2017-11-28T11:11:22.080Z,84.60
2017-11-28T11:13:48.355Z,84.60
2017-11-28T11:16:15.441Z,83.30
2017-11-28T11:18:41.726Z,83.30
2017-11-28T11:21:08.742Z,83.10
2017-11-28T11:23:35.033Z,83.00
2017-11-28T11:26:01.298Z,84.40
2017-11-28T11:28:27.516Z,85.00
2017-11-28T11:30:53.795Z,86.00
2017-11-28T11:33:20.189Z,85.60
2017-11-28T11:35:46.500Z,86.60
2017-11-28T11:38:13.078Z,86.10
2017-11-28T11:40:40.085Z,87.80
2017-11-28T11:43:06.400Z,87.00
2017-11-28T11:45:32.733Z,85.60
2017-11-28T11:47:59.300Z,85.20
2017-11-28T11:50:25.791Z,85.50
2017-11-28T11:52:52.391Z,85.20
2017-11-28T11:55:18.763Z,85.50
2017-11-28T11:57:44.998Z,84.90
2017-11-28T12:00:11.263Z,84.40
2017-11-28T12:02:37.536Z,84.60
2017-11-28T12:05:04.580Z,85.70
2017-11-28T12:07:31.637Z,85.90
2017-11-28T12:09:57.915Z,85.90
2017-11-28T12:12:24.264Z,85.60
2017-11-28T12:14:51.342Z,85.80
2017-11-28T12:17:17.619Z,85.80
2017-11-28T12:19:43.863Z,85.90
2017-11-28T12:22:10.164Z,85.60
2017-11-28T12:24:36.472Z,86.00
2017-11-28T12:27:02.817Z,85.00
2017-11-28T12:29:29.183Z,85.40
2017-11-28T12:31:55.433Z,85.80
2017-11-28T12:34:21.798Z,85.20
2017-11-28T12:36:48.259Z,85.40
2017-11-28T12:39:14.600Z,85.10
2017-11-28T12:41:41.085Z,85.10
2017-11-28T12:44:07.367Z,85.50
2017-11-28T12:46:35.153Z,84.40
2017-11-28T12:49:02.169Z,83.90
2017-11-28T12:51:28.820Z,84.40
2017-11-28T12:53:55.676Z,83.30
2017-11-28T12:56:22.085Z,82.20
2017-11-28T12:58:48.480Z,82.60
2017-11-28T13:01:14.813Z,81.80
2017-11-28T13:03:41.125Z,83.20
2017-11-28T13:06:07.849Z,82.20
2017-11-28T13:08:34.877Z,82.30
2017-11-28T13:11:01.155Z,82.20
2017-11-28T13:13:27.639Z,82.80
2017-11-28T13:16:01.633Z,82.70
2017-11-28T13:18:27.915Z,82.70
2017-11-28T13:20:54.271Z,82.80
2017-11-28T13:23:20.656Z,83.10
2017-11-28T13:25:47.844Z,80.90
2017-11-28T13:28:14.096Z,80.80
2017-11-28T13:30:40.377Z,81.50
2017-11-28T13:33:06.636Z,81.50
2017-11-28T13:35:33.008Z,81.00
2017-11-28T13:37:59.317Z,80.50
2017-11-28T13:40:26.360Z,81.60
2017-11-28T13:42:52.707Z,81.30
2017-11-28T13:45:19.138Z,80.90
2017-11-28T13:47:45.622Z,81.70
2017-11-28T13:50:12.058Z,81.40
2017-11-28T13:52:38.627Z,81.80
2017-11-28T13:55:06.015Z,81.90
2017-11-28T13:57:33.028Z,82.10
2017-11-28T13:59:59.250Z,82.10
2017-11-28T14:02:25.584Z,82.50
2017-11-28T14:04:51.919Z,82.30
2017-11-28T14:07:18.286Z,82.10
2017-11-28T14:09:44.579Z,82.10
2017-11-28T14:12:10.852Z,82.50
2017-11-28T14:14:37.131Z,82.60
2017-11-28T14:17:03.452Z,82.90
2017-11-28T14:19:30.760Z,82.80
2017-11-28T14:21:59.753Z,82.60
2017-11-28T14:24:32.851Z,83.10
2017-11-28T14:27:05.220Z,83.00
2017-11-28T14:32:40.817Z,83.30
2017-11-28T14:35:07.884Z,82.80
2017-11-28T14:37:34.483Z,82.80
2017-11-28T14:40:01.215Z,82.40
2017-11-28T14:42:33.384Z,84.00
2017-11-28T14:45:01.504Z,83.80
2017-11-28T14:47:28.566Z,84.40
2017-11-28T14:49:55.481Z,84.30
2017-11-28T14:55:28.507Z,83.80
2017-11-28T14:57:57.998Z,85.00
2017-11-28T15:03:47.887Z,84.50
2017-11-28T15:06:20.347Z,85.20
2017-11-28T15:08:52.692Z,85.00
2017-11-28T15:11:25.008Z,85.70
2017-11-28T15:13:57.465Z,85.40
2017-11-28T15:16:29.861Z,85.10
2017-11-28T15:18:58.139Z,85.00
2017-11-28T15:21:26.992Z,86.00
2017-11-28T15:23:57.205Z,85.90
2017-11-28T15:26:24.587Z,86.70
2017-11-28T15:28:57.177Z,87.10
2017-11-28T15:31:24.248Z,86.40
2017-11-28T15:33:51.269Z,86.80
2017-11-28T15:36:17.563Z,86.60
2017-11-28T15:38:44.229Z,86.60
2017-11-28T15:41:10.676Z,86.30
2017-11-28T15:43:38.503Z,85.80
2017-11-28T15:46:04.812Z,85.90
2017-11-28T15:48:31.306Z,85.50
2017-11-28T15:50:57.739Z,85.50
2017-11-28T15:53:24.236Z,85.20
2017-11-28T15:55:50.661Z,85.30
2017-11-28T15:58:16.990Z,85.50
2017-11-28T16:00:43.308Z,85.10
2017-11-28T16:03:09.671Z,84.90
2017-11-28T16:05:35.972Z,85.40
2017-11-28T16:08:02.428Z,84.70
2017-11-28T16:10:29.510Z,84.90
2017-11-28T16:12:55.783Z,84.90
2017-11-28T16:15:22.071Z,84.50
2017-11-28T16:17:48.364Z,84.20
2017-11-28T16:20:14.773Z,84.40
2017-11-28T16:22:41.090Z,84.90
2017-11-28T16:25:08.247Z,84.90
2017-11-28T16:27:34.542Z,84.90
2017-11-28T16:30:01.661Z,85.20
2017-11-28T16:32:27.984Z,85.20
2017-11-28T16:34:54.262Z,84.60
2017-11-28T16:37:20.638Z,84.60
2017-11-28T16:39:46.936Z,85.00
2017-11-28T16:42:14.041Z,85.10
2017-11-28T16:44:41.132Z,85.10
2017-11-28T16:47:08.352Z,85.50
2017-11-28T16:49:34.648Z,85.50
2017-11-28T16:52:00.965Z,85.70
2017-11-28T16:54:27.341Z,85.40
2017-11-28T16:56:53.707Z,85.20
2017-11-28T16:59:19.986Z,85.40
2017-11-28T17:01:46.418Z,85.30
2017-11-28T17:04:12.813Z,84.60
2017-11-28T17:06:39.183Z,84.40
2017-11-28T17:09:05.568Z,84.80
2017-11-28T17:11:31.866Z,85.10
2017-11-28T17:13:58.192Z,85.70
2017-11-28T17:16:24.472Z,86.30
2017-11-28T17:18:50.710Z,85.80
2017-11-28T17:21:17.014Z,86.20
2017-11-28T17:23:44.198Z,85.80
2017-11-28T17:26:10.513Z,85.80
2017-11-28T17:28:36.850Z,86.00
2017-11-28T17:31:03.095Z,85.80
2017-11-28T17:33:29.560Z,85.40
2017-11-28T17:35:55.906Z,85.00
2017-11-28T17:38:22.275Z,84.90
2017-11-28T17:40:48.669Z,84.80
2017-11-28T17:43:15.035Z,84.60
2017-11-28T17:45:41.360Z,84.60
2017-11-28T17:48:08.114Z,84.90
2017-11-28T17:50:34.869Z,84.00
2017-11-28T17:53:01.202Z,83.90
2017-11-28T17:55:27.697Z,84.40
2017-11-28T17:57:54.145Z,84.00
2017-11-28T18:00:20.501Z,83.90
2017-11-28T18:02:46.875Z,83.30
2017-11-28T18:05:13.159Z,83.70
2017-11-28T18:07:41.220Z,83.00
2017-11-28T18:10:09.356Z,82.60
2017-11-28T18:12:35.684Z,82.70
2017-11-28T18:15:01.980Z,82.70
2017-11-28T18:17:28.269Z,82.50
2017-11-28T18:19:54.584Z,81.80
2017-11-28T18:22:20.871Z,82.60
2017-11-28T18:24:48.057Z,83.30
2017-11-28T18:27:14.577Z,83.30
2017-11-28T18:29:41.207Z,83.10
2017-11-28T18:32:09.924Z,82.60
2017-11-28T18:34:37.161Z,82.60
2017-11-28T18:37:03.451Z,82.80
2017-11-28T18:39:29.715Z,82.60
2017-11-28T18:41:56.088Z,82.80
2017-11-28T18:44:22.329Z,83.10
2017-11-28T18:46:48.697Z,82.90
2017-11-28T18:49:15.041Z,83.10
2017-11-28T18:51:41.357Z,83.40
2017-11-28T18:54:07.620Z,83.10
2017-11-28T18:56:34.096Z,82.60
2017-11-28T18:59:01.141Z,82.30
2017-11-28T19:01:27.998Z,82.60
2017-11-28T19:03:55.492Z,82.90
2017-11-28T19:06:22.100Z,82.70
2017-11-28T19:08:48.632Z,82.90
2017-11-28T19:11:15.091Z,83.10
2017-11-28T19:13:41.556Z,83.50
2017-11-28T19:16:07.922Z,83.30
2017-11-28T19:18:34.420Z,83.20
2017-11-28T19:21:00.735Z,83.10
2017-11-28T19:23:28.360Z,83.00
2017-11-28T19:26:02.284Z,83.70
2017-11-28T19:28:28.644Z,83.80
2017-11-28T19:30:55.650Z,83.80
2017-11-28T19:33:22.698Z,84.00
2017-11-28T19:35:49.849Z,83.40
2017-11-28T19:38:17.194Z,83.30
2017-11-28T19:40:44.308Z,83.60
2017-11-28T19:43:11.263Z,84.50
2017-11-28T19:45:38.340Z,83.70
2017-11-28T19:48:04.777Z,83.70
2017-11-28T19:50:31.028Z,83.80
2017-11-28T19:52:57.284Z,84.10
2017-11-28T19:55:23.579Z,84.40
2017-11-28T19:57:50.089Z,84.40
2017-11-28T20:00:17.271Z,84.30
2017-11-28T20:02:43.623Z,84.30
2017-11-28T20:05:09.972Z,83.80
2017-11-28T20:07:36.240Z,84.00
2017-11-28T20:10:03.560Z,83.50
2017-11-28T20:12:30.137Z,83.50
2017-11-28T20:14:57.155Z,83.60
2017-11-28T20:17:30.529Z,83.90
2017-11-28T20:19:57.316Z,83.80
2017-11-28T20:22:26.680Z,83.90
2017-11-28T20:24:53.875Z,84.10
2017-11-28T20:27:20.303Z,84.10
2017-11-28T20:29:46.647Z,85.10
2017-11-28T20:32:14.199Z,84.80
2017-11-28T20:34:40.563Z,84.80
2017-11-28T20:37:06.950Z,84.30
2017-11-28T20:39:33.216Z,84.40
2017-11-28T20:41:59.466Z,84.40
2017-11-28T20:44:26.823Z,85.20
2017-11-28T20:46:53.183Z,85.20
2017-11-28T20:49:25.657Z,84.60
2017-11-28T20:51:52.084Z,84.70
2017-11-28T20:54:18.388Z,85.00
2017-11-28T20:56:44.846Z,85.10
2017-11-28T20:59:11.829Z,84.70
2017-11-28T21:01:38.720Z,84.70
2017-11-28T21:04:05.080Z,84.90
2017-11-28T21:06:31.364Z,85.10
2017-11-28T21:08:57.619Z,84.70
2017-11-28T21:11:25.137Z,85.10
2017-11-28T21:13:51.759Z,85.10
2017-11-28T21:16:18.120Z,85.00
2017-11-28T21:18:45.269Z,85.10
2017-11-28T21:21:12.284Z,84.90
2017-11-28T21:23:38.606Z,84.90
2017-11-28T21:26:04.917Z,84.60
2017-11-28T21:28:31.316Z,84.40
2017-11-28T21:30:58.824Z,85.20
2017-11-28T21:33:26.016Z,84.40
2017-11-28T21:35:53.506Z,84.40
2017-11-28T21:38:20.628Z,84.50
2017-11-28T21:40:47.067Z,84.40
2017-11-28T21:43:13.351Z,84.70
2017-11-28T21:45:39.603Z,84.80
2017-11-28T21:48:06.023Z,84.20
2017-11-28T21:50:32.495Z,84.40
2017-11-28T21:52:58.808Z,84.00
2017-11-28T21:55:25.073Z,84.40
2017-11-28T21:57:51.353Z,84.20
2017-11-28T22:00:17.793Z,84.00
2017-11-28T22:02:44.161Z,84.50
2017-11-28T22:05:11.593Z,84.80
2017-11-28T22:07:37.918Z,84.80
2017-11-28T22:10:04.278Z,84.60
2017-11-28T22:12:30.559Z,84.60
2017-11-28T22:14:56.779Z,84.70
2017-11-28T22:17:23.083Z,84.40
2017-11-28T22:19:49.358Z,84.50
2017-11-28T22:22:16.357Z,84.50
2017-11-28T22:24:42.759Z,84.40
2017-11-28T22:27:09.751Z,84.30
2017-11-28T22:29:36.010Z,84.20
2017-11-28T22:32:02.351Z,84.10
2017-11-28T22:34:28.620Z,84.40
2017-11-28T22:36:54.868Z,84.50
2017-11-28T22:39:21.129Z,84.80
2017-11-28T22:41:48.355Z,84.90
2017-11-28T22:44:14.603Z,84.80
2017-11-28T22:46:40.964Z,84.10
2017-11-28T22:49:07.964Z,83.90
2017-11-28T22:51:34.212Z,83.90
2017-11-28T22:54:00.479Z,84.10
2017-11-28T22:56:26.889Z,83.80
2017-11-28T22:58:54.128Z,84.40
2017-11-28T23:01:21.141Z,84.50
2017-11-28T23:03:47.580Z,84.50
2017-11-28T23:06:14.845Z,84.70
2017-11-28T23:08:41.170Z,84.60
2017-11-28T23:11:07.461Z,84.60
2017-11-28T23:13:46.111Z,84.50
2017-11-28T23:16:12.508Z,84.50
2017-11-28T23:18:38.814Z,84.10
2017-11-28T23:21:05.818Z,84.50
2017-11-28T23:23:32.048Z,84.50
2017-11-28T23:25:58.465Z,84.50
2017-11-28T23:28:24.738Z,84.60
2017-11-28T23:30:51.003Z,84.60
2017-11-28T23:33:17.255Z,84.60
2017-11-28T23:35:43.533Z,84.70
2017-11-28T23:38:10.589Z,84.80
2017-11-28T23:40:36.946Z,84.70
2017-11-28T23:43:03.273Z,85.10
2017-11-28T23:45:29.691Z,84.70
2017-11-28T23:47:55.985Z,85.30
2017-11-28T23:50:22.235Z,85.10
2017-11-28T23:52:48.640Z,85.30
2017-11-28T23:55:14.917Z,85.60
2017-11-28T23:57:41.178Z,86.30
